Terminal Aerodrome Forecast
Issued by NWS Wilmington, NC

Home | Current Version | Previous Version | Text Only | Print | Product List | Glossary On
Versions: 1 2 3 4 5 6 7 8 9 10 11 12 13 14 15 16 17 18
000
FTUS42 KILM 272300
TAFFLO
TAF
KFLO 272320Z 2800/2824 22010KT P6SM SCT120
     FM280800 24009KT P6SM FEW040 SCT150
     FM281500 27011KT P6SM SCT050 SCT150
     FM281800 27012G18KT P6SM VCTS SCT040CB BKN200
      TEMPO 2819/2823 27020G30KT 1SM +TSRA BKN030CB=

USA.gov is the U.S. government's official web portal to all federal, state and local government web resources and services.